Time;durP1;ratioP1;P1;durP2;ratioP2;P2;SDS_P1;SDS_P2;PMS_P1;PMS_P2;Temp;Humidity;BMP_temperature;BMP_pressure;BME280_temperature;BME280_humidity;BME280_pressure;Samples;Min_cycle;Max_cycle;Signal;HPM_P1;HPM_P2
2022/01/17 00:01:14;;;;;;;30.60;22.37;;;6.40;99.90;;;;;;637876;221;26527;-78
2022/01/17 00:20:14;;;;;;;31.57;19.90;;;6.30;99.90;;;;;;646945;221;26813;-79
2022/01/17 00:22:39;;;;;;;26.13;17.70;;;6.60;99.90;;;;;;647449;222;26729;-78
2022/01/17 00:25:05;;;;;;;24.57;17.40;;;6.50;99.90;;;;;;647444;222;26807;-78
2022/01/17 00:27:33;;;;;;;23.53;17.13;;;6.50;99.90;;;;;;647462;222;26559;-79
2022/01/17 00:30:02;;;;;;;22.73;16.20;;;6.60;99.90;;;;;;647399;222;26854;-79
2022/01/17 00:32:27;;;;;;;24.93;15.97;;;6.70;99.90;;;;;;647326;222;26824;-79
2022/01/17 00:34:54;;;;;;;18.40;14.27;;;6.80;99.90;;;;;;647442;222;26807;-79
2022/01/17 00:37:21;;;;;;;19.47;14.00;;;6.80;99.90;;;;;;647482;218;26608;-79
2022/01/17 00:39:48;;;;;;;20.70;13.67;;;6.60;99.90;;;;;;647444;222;26546;-78
2022/01/17 00:42:16;;;;;;;19.53;13.23;;;6.60;99.90;;;;;;647433;222;26499;-79
2022/01/17 00:44:44;;;;;;;17.20;13.07;;;6.60;99.90;;;;;;647455;222;26577;-79
2022/01/17 00:47:12;;;;;;;19.27;13.93;;;6.80;99.90;;;;;;647465;222;26562;-79
2022/01/17 00:49:41;;;;;;;18.10;13.27;;;6.80;99.90;;;;;;647455;222;26580;-78
2022/01/17 00:52:07;;;;;;;19.07;13.27;;;6.80;99.90;;;;;;647463;222;26591;-78
2022/01/17 00:54:35;;;;;;;20.57;13.83;;;6.70;99.90;;;;;;647475;222;26519;-78
2022/01/17 00:57:02;;;;;;;18.33;11.53;;;6.90;99.90;;;;;;647460;222;27243;-78
2022/01/17 00:59:29;;;;;;;18.60;11.93;;;6.80;99.90;;;;;;648914;220;26541;-79
2022/01/17 01:01:56;;;;;;;19.83;11.97;;;6.80;99.90;;;;;;648804;221;26545;-78
2022/01/17 01:04:24;;;;;;;17.83;11.80;;;7.00;99.90;;;;;;648458;221;26559;-80
2022/01/17 01:06:51;;;;;;;21.77;12.67;;;6.90;99.90;;;;;;648390;222;26574;-80
2022/01/17 01:09:18;;;;;;;17.47;11.80;;;6.90;99.90;;;;;;648055;222;26868;-80
2022/01/17 01:11:46;;;;;;;17.37;12.03;;;7.10;99.90;;;;;;647916;222;26537;-81
2022/01/17 01:14:13;;;;;;;18.90;12.10;;;6.90;99.90;;;;;;647956;222;26763;-80
2022/01/17 01:16:42;;;;;;;18.27;11.70;;;6.90;99.90;;;;;;647822;222;26593;-80
2022/01/17 01:19:19;;;;;;;17.13;12.20;;;6.90;99.90;;;;;;648080;222;26779;-80
2022/01/17 01:29:13;;;;;;;17.73;11.53;;;6.70;99.90;;;;;;647692;222;26786;-80
2022/01/17 01:31:52;;;;;;;17.03;10.73;;;6.60;99.90;;;;;;647721;222;26595;-80
2022/01/17 01:34:14;;;;;;;17.03;10.83;;;6.50;99.90;;;;;;647230;222;26531;-80
2022/01/17 01:36:41;;;;;;;15.17;9.80;;;6.50;99.90;;;;;;647431;222;26802;-80
2022/01/17 01:39:08;;;;;;;18.17;10.00;;;6.60;99.90;;;;;;647382;222;26571;-80
2022/01/17 01:41:37;;;;;;;12.93;8.63;;;6.70;99.90;;;;;;647413;221;26882;-80
2022/01/17 01:44:03;;;;;;;19.27;9.97;;;6.60;99.90;;;;;;647356;222;26557;-80
2022/01/17 01:46:30;;;;;;;15.50;8.17;;;6.60;99.90;;;;;;647416;221;26564;-80
2022/01/17 01:48:58;;;;;;;10.57;7.90;;;6.50;99.90;;;;;;647504;222;26568;-80
2022/01/17 01:51:25;;;;;;;11.53;6.53;;;6.50;99.90;;;;;;647477;222;26564;-80
2022/01/17 01:53:52;;;;;;;9.70;5.10;;;6.40;99.90;;;;;;647575;222;26793;-80
2022/01/17 01:56:20;;;;;;;11.67;5.07;;;6.30;99.90;;;;;;647483;222;26572;-80
2022/01/17 01:58:48;;;;;;;7.87;4.83;;;6.30;99.90;;;;;;647367;222;26604;-80
2022/01/17 02:01:15;;;;;;;8.03;4.43;;;6.30;99.90;;;;;;647500;222;26580;-80
2022/01/17 02:03:42;;;;;;;7.90;4.00;;;6.20;99.90;;;;;;647484;222;26555;-80
2022/01/17 02:06:10;;;;;;;9.00;3.37;;;6.20;99.90;;;;;;647498;222;26838;-80
2022/01/17 02:08:37;;;;;;;3.40;3.10;;;6.00;99.90;;;;;;647469;222;26582;-80
2022/01/17 02:11:04;;;;;;;7.30;3.67;;;5.80;99.90;;;;;;649042;220;26598;-80
2022/01/17 02:13:32;;;;;;;8.10;3.23;;;5.40;99.90;;;;;;648912;221;26522;-82
2022/01/17 02:16:01;;;;;;;9.23;2.77;;;5.40;99.90;;;;;;648649;221;26793;-80
2022/01/17 02:18:30;;;;;;;4.40;2.33;;;5.20;99.90;;;;;;648580;221;26551;-80
2022/01/17 02:23:39;;;;;;;6.53;2.70;;;5.10;99.90;;;;;;643184;221;26775;-80
2022/01/17 02:26:06;;;;;;;9.73;2.83;;;5.10;99.90;;;;;;648098;222;26747;-80
2022/01/17 02:28:35;;;;;;;2.80;2.50;;;5.10;99.90;;;;;;647891;222;26577;-80
2022/01/17 02:31:02;;;;;;;6.33;2.47;;;5.20;99.90;;;;;;647688;222;26536;-80
2022/01/17 02:33:29;;;;;;;7.43;2.30;;;5.20;99.90;;;;;;647796;222;26839;-80
2022/01/17 02:35:56;;;;;;;9.50;2.83;;;5.20;99.90;;;;;;647829;222;26484;-80
2022/01/17 02:38:24;;;;;;;8.83;2.93;;;5.30;99.90;;;;;;647791;222;26810;-80
2022/01/17 02:40:51;;;;;;;11.27;3.30;;;5.30;99.90;;;;;;647763;222;26602;-80
2022/01/17 02:43:20;;;;;;;4.90;2.43;;;5.50;99.90;;;;;;647726;222;26867;-80
2022/01/17 02:48:33;;;;;;;8.93;2.83;;;5.70;99.90;;;;;;646268;221;26621;-81
2022/01/17 02:51:00;;;;;;;6.87;3.13;;;5.90;99.90;;;;;;647368;218;26588;-81
2022/01/17 02:53:27;;;;;;;4.13;2.20;;;6.00;99.90;;;;;;647383;222;26608;-80
2022/01/17 02:55:55;;;;;;;8.40;3.13;;;6.20;99.90;;;;;;647318;217;26833;-80
2022/01/17 02:58:23;;;;;;;9.57;2.80;;;6.30;99.90;;;;;;647287;222;26579;-80
2022/01/17 03:00:50;;;;;;;6.40;2.17;;;6.20;99.90;;;;;;647269;222;26610;-79
2022/01/17 03:03:18;;;;;;;7.43;2.20;;;6.10;99.90;;;;;;647339;222;26574;-80
2022/01/17 03:05:45;;;;;;;4.53;2.60;;;6.30;99.90;;;;;;647307;217;26569;-80
2022/01/17 03:08:13;;;;;;;8.50;2.57;;;6.20;99.90;;;;;;647364;222;26601;-80
2022/01/17 03:10:40;;;;;;;9.00;2.40;;;6.20;99.90;;;;;;647325;222;26617;-80
2022/01/17 03:13:10;;;;;;;6.40;2.50;;;6.20;99.90;;;;;;647423;222;26551;-80
2022/01/17 03:15:36;;;;;;;14.73;3.63;;;6.20;99.90;;;;;;647296;222;26802;-80
2022/01/17 03:18:04;;;;;;;7.33;2.40;;;6.30;99.90;;;;;;647435;218;26587;-79
2022/01/17 03:20:34;;;;;;;6.73;2.40;;;6.20;99.90;;;;;;647424;222;26816;-79
2022/01/17 03:22:59;;;;;;;9.47;2.60;;;6.20;99.90;;;;;;649015;220;26536;-79
2022/01/17 03:25:27;;;;;;;7.37;2.60;;;6.20;99.90;;;;;;648809;221;26510;-80
2022/01/17 03:27:54;;;;;;;10.53;2.93;;;6.30;99.90;;;;;;648407;221;26891;-80
2022/01/17 03:30:22;;;;;;;9.53;2.63;;;6.20;99.90;;;;;;648327;221;26596;-79
2022/01/17 03:32:48;;;;;;;9.47;3.30;;;6.30;99.90;;;;;;648078;222;26506;-80
2022/01/17 03:35:16;;;;;;;5.40;2.50;;;6.30;99.90;;;;;;648175;222;26506;-80
2022/01/17 03:37:44;;;;;;;7.47;2.83;;;6.30;99.90;;;;;;648233;222;26498;-80
2022/01/17 03:40:11;;;;;;;8.37;3.27;;;6.20;99.90;;;;;;647980;222;26573;-79
2022/01/17 03:42:39;;;;;;;8.50;2.83;;;6.30;99.90;;;;;;647879;222;27212;-80
2022/01/17 03:45:08;;;;;;;8.33;2.87;;;6.10;99.90;;;;;;647896;222;26552;-79
2022/01/17 03:47:35;;;;;;;8.47;3.13;;;6.10;99.90;;;;;;647824;222;26841;-80
2022/01/17 03:50:02;;;;;;;9.57;2.87;;;6.10;99.90;;;;;;647769;222;26566;-80
2022/01/17 03:52:29;;;;;;;9.83;2.90;;;6.10;99.90;;;;;;647813;222;26562;-80
2022/01/17 03:54:58;;;;;;;12.47;3.40;;;6.40;99.90;;;;;;647792;222;26527;-80
2022/01/17 03:57:25;;;;;;;6.27;2.50;;;6.40;99.90;;;;;;647746;222;26530;-79
2022/01/17 03:59:52;;;;;;;8.37;2.60;;;6.30;99.90;;;;;;647467;222;26589;-80
2022/01/17 04:02:20;;;;;;;8.83;2.73;;;6.30;99.90;;;;;;647567;222;26864;-79
2022/01/17 04:04:47;;;;;;;9.70;3.40;;;6.30;99.90;;;;;;647584;222;26588;-80
2022/01/17 04:07:14;;;;;;;11.73;2.97;;;6.30;99.90;;;;;;647602;222;26761;-81
2022/01/17 04:09:42;;;;;;;8.80;2.50;;;6.20;99.90;;;;;;647381;222;26841;-80
2022/01/17 04:12:10;;;;;;;9.07;2.83;;;6.20;99.90;;;;;;647399;222;26798;-79
2022/01/17 04:14:38;;;;;;;11.17;3.10;;;6.20;99.90;;;;;;647429;222;26589;-80
2022/01/17 04:17:06;;;;;;;9.93;2.90;;;6.20;99.90;;;;;;647417;222;26578;-80
2022/01/17 04:19:32;;;;;;;7.27;2.50;;;6.20;99.90;;;;;;647347;222;26823;-80
2022/01/17 04:21:59;;;;;;;12.97;3.13;;;6.30;99.90;;;;;;647754;222;26547;-79
2022/01/17 04:24:26;;;;;;;12.43;3.27;;;6.10;99.90;;;;;;647484;222;26592;-79
2022/01/17 04:26:54;;;;;;;9.43;2.57;;;6.10;99.90;;;;;;647405;222;26567;-79
2022/01/17 04:29:21;;;;;;;11.97;2.57;;;6.10;99.90;;;;;;647340;222;26571;-80
2022/01/17 04:31:48;;;;;;;6.87;3.23;;;6.20;99.90;;;;;;647454;222;26569;-79
2022/01/17 04:34:15;;;;;;;10.83;3.53;;;6.30;99.90;;;;;;648880;220;26842;-81
2022/01/17 04:36:43;;;;;;;11.33;2.90;;;6.20;99.90;;;;;;648763;221;26513;-79
2022/01/17 04:39:15;;;;;;;5.97;2.73;;;6.20;99.90;;;;;;648412;221;26796;-79
2022/01/17 04:41:39;;;;;;;8.23;3.00;;;6.20;99.90;;;;;;647929;221;26578;-80
2022/01/17 04:45:07;;;;;;;8.53;2.80;;;6.00;99.90;;;;;;648027;222;26507;-80
2022/01/17 04:46:49;;;;;;;9.70;3.43;;;6.00;99.90;;;;;;646443;222;26481;-79
2022/01/17 04:49:16;;;;;;;11.27;3.07;;;6.00;99.90;;;;;;648114;217;26824;-79
2022/01/17 04:51:45;;;;;;;5.77;2.73;;;6.00;99.90;;;;;;647913;222;26601;-80
2022/01/17 04:54:39;;;;;;;9.57;2.90;;;6.10;99.90;;;;;;647735;222;26801;-80
2022/01/17 04:56:53;;;;;;;6.90;3.20;;;6.10;99.90;;;;;;646576;222;26555;-79
2022/01/17 04:59:20;;;;;;;9.90;3.13;;;6.10;99.90;;;;;;647739;222;26777;-79
2022/01/17 05:01:47;;;;;;;8.10;3.23;;;6.10;99.90;;;;;;647697;222;26537;-79
2022/01/17 05:04:15;;;;;;;10.33;2.57;;;6.00;99.90;;;;;;647680;222;26814;-79
2022/01/17 05:06:42;;;;;;;9.53;2.90;;;6.00;99.90;;;;;;647580;222;26595;-79
2022/01/17 05:09:10;;;;;;;11.17;3.17;;;6.00;99.90;;;;;;647516;222;26549;-80
2022/01/17 05:11:39;;;;;;;9.83;2.73;;;6.00;99.90;;;;;;647385;222;26604;-80
2022/01/17 05:14:05;;;;;;;9.23;3.00;;;6.00;99.90;;;;;;647284;222;26575;-80
2022/01/17 05:16:37;;;;;;;12.40;2.47;;;6.10;99.90;;;;;;647356;222;26804;-80
2022/01/17 05:21:34;;;;;;;11.13;2.70;;;6.10;99.90;;;;;;647355;222;26598;-80
2022/01/17 05:24:02;;;;;;;11.17;3.10;;;6.10;99.90;;;;;;647422;222;26592;-79
2022/01/17 05:26:29;;;;;;;8.50;2.93;;;6.10;99.90;;;;;;647431;222;26567;-80
2022/01/17 05:28:56;;;;;;;9.13;3.43;;;6.10;99.90;;;;;;647360;222;26569;-80
2022/01/17 05:31:23;;;;;;;6.60;2.50;;;6.20;99.90;;;;;;647421;222;26880;-83
2022/01/17 05:33:51;;;;;;;7.70;2.70;;;6.20;99.90;;;;;;647402;222;26594;-83
2022/01/17 05:36:19;;;;;;;8.43;2.80;;;6.20;99.90;;;;;;647298;222;26507;-83
2022/01/17 05:38:46;;;;;;;8.67;2.63;;;6.20;99.90;;;;;;647391;222;26568;-83
2022/01/17 05:41:13;;;;;;;9.60;2.97;;;6.20;99.90;;;;;;647391;222;26820;-82
2022/01/17 05:43:41;;;;;;;9.30;2.67;;;6.20;99.90;;;;;;647416;222;27212;-83
2022/01/17 05:46:08;;;;;;;14.00;2.83;;;6.20;99.90;;;;;;649156;217;26558;-83
2022/01/17 05:48:35;;;;;;;7.33;3.13;;;6.10;99.90;;;;;;648827;221;26503;-83
2022/01/17 05:51:02;;;;;;;12.43;3.17;;;6.20;99.90;;;;;;648481;222;26587;-83
2022/01/17 05:53:29;;;;;;;4.83;2.63;;;6.20;99.90;;;;;;648432;221;26811;-82
2022/01/17 05:55:57;;;;;;;11.97;3.43;;;6.10;99.90;;;;;;648159;222;26527;-83
2022/01/17 05:58:24;;;;;;;11.33;2.77;;;6.10;99.90;;;;;;648136;222;27009;-83
2022/01/17 06:00:52;;;;;;;10.87;3.10;;;6.20;99.90;;;;;;648085;222;26521;-83
2022/01/17 06:03:20;;;;;;;11.73;3.17;;;6.20;99.90;;;;;;647867;222;26574;-83
2022/01/17 06:05:47;;;;;;;9.90;3.00;;;6.20;99.90;;;;;;647750;222;26576;-83
2022/01/17 06:08:14;;;;;;;11.13;2.97;;;6.40;99.90;;;;;;647657;222;26780;-83
2022/01/17 06:10:41;;;;;;;7.47;2.47;;;6.30;99.90;;;;;;647660;222;26825;-83
2022/01/17 06:13:08;;;;;;;4.90;2.80;;;6.20;99.90;;;;;;647697;222;26568;-83
2022/01/17 06:15:36;;;;;;;10.17;2.90;;;6.20;99.90;;;;;;637598;222;26605;-83
2022/01/17 06:18:04;;;;;;;10.80;2.33;;;6.10;99.90;;;;;;647757;222;26567;-83
2022/01/17 06:20:32;;;;;;;8.97;2.83;;;6.20;99.90;;;;;;647609;222;26583;-83
2022/01/17 06:22:59;;;;;;;8.20;3.00;;;6.20;99.90;;;;;;647365;222;26572;-83
2022/01/17 06:25:27;;;;;;;7.97;2.57;;;6.10;99.90;;;;;;647395;222;26823;-83
2022/01/17 06:27:54;;;;;;;14.03;3.90;;;6.00;99.90;;;;;;642416;221;26561;-84
2022/01/17 06:30:21;;;;;;;8.70;2.90;;;5.90;99.90;;;;;;642898;222;26823;-83
2022/01/17 06:32:49;;;;;;;9.37;2.53;;;5.80;99.90;;;;;;640435;222;26592;-81
2022/01/17 06:35:17;;;;;;;11.50;3.10;;;5.70;99.90;;;;;;637843;222;26588;-83
2022/01/17 06:37:44;;;;;;;11.87;3.70;;;5.70;99.90;;;;;;638845;219;26579;-84
2022/01/17 06:40:12;;;;;;;6.63;3.23;;;5.80;99.90;;;;;;641139;221;26609;-83
2022/01/17 06:42:39;;;;;;;9.93;3.20;;;5.70;99.90;;;;;;643304;221;26581;-83
2022/01/17 06:45:07;;;;;;;8.43;3.00;;;5.70;99.90;;;;;;641612;221;26609;-83
2022/01/17 06:47:34;;;;;;;5.47;2.50;;;5.70;99.90;;;;;;639625;222;26590;-83
2022/01/17 06:50:04;;;;;;;6.30;2.50;;;5.80;99.90;;;;;;641717;221;26563;-83
2022/01/17 06:52:29;;;;;;;13.43;3.53;;;5.80;99.90;;;;;;641823;221;26538;-83
2022/01/17 06:54:57;;;;;;;8.67;3.23;;;5.80;99.90;;;;;;642956;221;26540;-83
2022/01/17 06:57:24;;;;;;;9.47;3.13;;;5.70;99.90;;;;;;643674;220;26565;-83
2022/01/17 06:59:51;;;;;;;7.30;2.90;;;5.60;99.90;;;;;;646209;220;26794;-82
2022/01/17 07:02:19;;;;;;;6.63;2.87;;;5.50;99.90;;;;;;639020;222;26569;-83
2022/01/17 07:04:47;;;;;;;9.13;3.23;;;5.50;99.90;;;;;;639459;222;26516;-81
2022/01/17 07:07:16;;;;;;;7.60;3.13;;;5.50;99.90;;;;;;638379;224;26578;-80
2022/01/17 07:09:42;;;;;;;7.83;3.10;;;5.50;99.90;;;;;;639884;223;26802;-81
2022/01/17 07:12:10;;;;;;;6.87;3.47;;;5.60;99.90;;;;;;641647;222;26614;-80
2022/01/17 07:14:41;;;;;;;7.20;3.13;;;5.70;99.90;;;;;;641141;222;26523;-80
2022/01/17 07:17:04;;;;;;;18.30;4.20;;;5.70;99.90;;;;;;637305;225;26578;-81
2022/01/17 07:19:31;;;;;;;10.77;3.37;;;5.60;99.90;;;;;;643387;221;26575;-81
2022/01/17 07:21:59;;;;;;;11.00;3.77;;;5.50;99.90;;;;;;640134;221;26836;-81
2022/01/17 07:24:26;;;;;;;7.43;2.90;;;5.50;99.90;;;;;;640350;224;26542;-81
2022/01/17 07:26:54;;;;;;;6.37;3.50;;;5.50;99.90;;;;;;643464;222;26537;-81
2022/01/17 07:29:22;;;;;;;6.20;2.97;;;5.60;99.90;;;;;;640766;223;26602;-81
2022/01/17 07:31:48;;;;;;;6.43;3.10;;;5.60;99.90;;;;;;641675;222;26605;-79
2022/01/17 07:34:16;;;;;;;7.23;3.30;;;5.70;99.90;;;;;;639458;222;26562;-78
2022/01/17 07:36:43;;;;;;;6.83;3.23;;;5.70;99.90;;;;;;641118;222;26774;-78
2022/01/17 07:39:10;;;;;;;9.23;3.20;;;5.70;99.90;;;;;;644859;221;26501;-79
2022/01/17 07:41:37;;;;;;;10.77;3.13;;;5.80;99.90;;;;;;644127;221;26534;-79
2022/01/17 07:44:18;;;;;;;7.07;3.53;;;5.40;99.90;;;;;;645395;221;26841;-80
2022/01/17 07:46:37;;;;;;;9.43;3.20;;;5.80;99.90;;;;;;638996;222;26562;-78
2022/01/17 07:49:10;;;;;;;14.53;3.50;;;5.80;99.90;;;;;;638877;223;26937;-78
2022/01/17 07:51:30;;;;;;;7.30;3.20;;;5.80;99.90;;;;;;643384;222;26832;-78
2022/01/17 07:53:58;;;;;;;6.90;3.30;;;5.70;99.90;;;;;;639269;222;26579;-79
2022/01/17 07:56:26;;;;;;;6.60;2.83;;;5.80;99.90;;;;;;642010;222;26583;-81
2022/01/17 07:58:54;;;;;;;6.10;3.10;;;5.80;99.90;;;;;;639063;221;26849;-81
2022/01/17 08:01:21;;;;;;;6.47;3.20;;;5.90;99.90;;;;;;638127;221;26794;-77
2022/01/17 08:03:48;;;;;;;4.27;3.37;;;5.90;99.90;;;;;;645503;222;26797;-77
2022/01/17 08:06:16;;;;;;;10.63;2.97;;;5.90;99.90;;;;;;643078;219;26582;-77
2022/01/17 08:08:44;;;;;;;6.27;3.33;;;5.80;99.90;;;;;;640067;221;26570;-77
2022/01/17 08:11:11;;;;;;;9.33;3.40;;;5.80;99.90;;;;;;644557;221;26759;-77
2022/01/17 08:13:38;;;;;;;7.90;3.17;;;5.80;99.90;;;;;;644322;221;26792;-76
2022/01/17 08:16:05;;;;;;;7.77;3.10;;;5.90;99.90;;;;;;639555;222;26804;-76
2022/01/17 08:18:33;;;;;;;5.70;3.47;;;5.80;99.90;;;;;;641284;221;26562;-76
2022/01/17 08:21:00;;;;;;;6.53;3.57;;;5.80;99.90;;;;;;642406;221;26548;-75
2022/01/17 08:23:28;;;;;;;8.27;3.60;;;5.70;99.90;;;;;;640514;222;26600;-75
2022/01/17 08:25:55;;;;;;;6.20;2.80;;;5.70;99.90;;;;;;641817;222;26848;-75
2022/01/17 08:28:22;;;;;;;6.93;3.00;;;5.70;99.90;;;;;;642230;221;26559;-75
2022/01/17 08:30:49;;;;;;;10.23;3.10;;;5.80;99.90;;;;;;640665;222;26812;-76
2022/01/17 08:33:17;;;;;;;5.90;3.53;;;5.80;99.90;;;;;;640287;222;26592;-75
2022/01/17 08:35:45;;;;;;;7.90;3.23;;;5.80;99.90;;;;;;642743;222;26570;-76
2022/01/17 08:38:13;;;;;;;7.37;2.70;;;5.80;99.90;;;;;;642338;221;26578;-75
2022/01/17 08:40:40;;;;;;;3.93;2.80;;;5.80;99.90;;;;;;640094;221;26596;-75
2022/01/17 08:43:08;;;;;;;6.77;3.10;;;5.90;99.90;;;;;;641018;222;26586;-78
2022/01/17 08:45:35;;;;;;;6.57;3.43;;;6.00;99.90;;;;;;639913;222;27371;-79
2022/01/17 08:48:04;;;;;;;6.23;3.67;;;6.00;99.90;;;;;;638603;224;26589;-78
2022/01/17 08:50:30;;;;;;;7.70;2.50;;;5.80;99.90;;;;;;637717;221;26580;-78
2022/01/17 08:52:57;;;;;;;4.97;2.83;;;5.80;99.90;;;;;;641546;222;26797;-79
2022/01/17 08:55:25;;;;;;;4.23;2.93;;;5.90;99.90;;;;;;644195;221;26873;-79
2022/01/17 08:57:52;;;;;;;5.60;2.47;;;5.90;99.90;;;;;;644424;221;26572;-79
2022/01/17 09:00:20;;;;;;;3.77;2.40;;;6.10;99.90;;;;;;640620;221;26855;-78
2022/01/17 09:02:47;;;;;;;3.10;2.40;;;6.10;99.90;;;;;;644863;222;26521;-79
2022/01/17 09:05:15;;;;;;;5.17;2.50;;;6.10;99.90;;;;;;643564;222;26581;-79
2022/01/17 09:07:42;;;;;;;4.73;2.97;;;6.10;99.90;;;;;;641057;222;26517;-79
2022/01/17 09:10:09;;;;;;;4.60;2.90;;;6.10;99.90;;;;;;639180;221;26563;-79
2022/01/17 09:12:37;;;;;;;5.13;2.60;;;6.10;99.90;;;;;;642113;221;26548;-79
2022/01/17 09:15:04;;;;;;;7.87;3.03;;;6.00;99.90;;;;;;646121;221;26521;-80
2022/01/17 09:17:31;;;;;;;5.20;3.00;;;5.90;99.90;;;;;;645002;222;26862;-79
2022/01/17 09:19:58;;;;;;;5.23;2.77;;;5.90;99.90;;;;;;641928;221;26577;-80
2022/01/17 09:22:26;;;;;;;4.17;2.30;;;5.80;99.90;;;;;;643314;221;26595;-80
2022/01/17 09:24:54;;;;;;;4.77;2.60;;;5.80;99.90;;;;;;641631;222;26536;-80
2022/01/17 09:27:21;;;;;;;7.00;2.63;;;5.70;99.90;;;;;;642084;222;26828;-81
2022/01/17 09:29:48;;;;;;;10.97;2.67;;;5.70;99.90;;;;;;644240;221;26582;-79
2022/01/17 09:32:15;;;;;;;5.37;2.60;;;5.60;99.90;;;;;;639549;221;27096;-84
2022/01/17 09:34:42;;;;;;;12.43;3.53;;;5.70;99.90;;;;;;640611;224;26504;-82
2022/01/17 09:37:09;;;;;;;2.90;2.60;;;5.70;99.90;;;;;;642047;222;26507;-81
2022/01/17 09:39:37;;;;;;;5.57;2.53;;;5.70;99.90;;;;;;639475;222;26567;-79
2022/01/17 09:42:06;;;;;;;9.50;2.73;;;5.70;99.90;;;;;;638420;223;26593;-80
2022/01/17 09:44:33;;;;;;;6.77;2.80;;;5.80;99.90;;;;;;644044;222;26803;-79
2022/01/17 09:47:00;;;;;;;10.93;3.10;;;5.80;99.90;;;;;;643125;222;26567;-79
2022/01/17 09:52:40;;;;;;;6.90;3.30;;;6.00;99.90;;;;;;640719;222;26603;-79
2022/01/17 09:54:51;;;;;;;7.93;2.33;;;6.00;99.90;;;;;;638254;224;26566;-80
2022/01/17 09:57:18;;;;;;;18.03;2.70;;;5.80;99.90;;;;;;640832;222;26797;-82
2022/01/17 09:59:45;;;;;;;4.43;2.23;;;5.50;99.90;;;;;;643841;221;26557;-86
2022/01/17 10:02:13;;;;;;;5.90;2.10;;;5.10;99.90;;;;;;639241;222;26827;-81
2022/01/17 10:04:40;;;;;;;4.40;1.83;;;4.90;99.90;;;;;;645917;221;26579;-81
2022/01/17 10:07:08;;;;;;;5.50;2.13;;;5.20;99.90;;;;;;647151;222;26567;-80
2022/01/17 10:09:35;;;;;;;7.83;2.40;;;5.10;99.90;;;;;;641332;222;26790;-80
2022/01/17 10:12:09;;;;;;;7.67;2.93;;;5.30;99.90;;;;;;637125;224;26620;-79
2022/01/17 10:14:38;;;;;;;3.07;1.90;;;5.60;99.90;;;;;;637736;224;26538;-79
2022/01/17 10:17:10;;;;;;;4.03;2.37;;;5.50;99.90;;;;;;639319;224;26572;-79
2022/01/17 10:19:38;;;;;;;6.50;1.80;;;5.50;99.90;;;;;;643145;222;26559;-79
2022/01/17 10:22:11;;;;;;;7.40;3.00;;;5.70;99.90;;;;;;639525;222;26877;-79
2022/01/17 10:24:42;;;;;;;8.97;2.10;;;5.70;99.90;;;;;;647924;221;26578;-79
2022/01/17 10:34:54;;;;;;;6.23;2.20;;;6.00;99.90;;;;;;643604;222;26858;-79
2022/01/17 10:37:23;;;;;;;4.67;2.53;;;6.00;99.90;;;;;;638993;221;26554;-80
2022/01/17 10:40:02;;;;;;;6.03;2.30;;;6.20;99.90;;;;;;643435;222;26576;-80
2022/01/17 10:42:31;;;;;;;4.97;2.33;;;6.20;99.90;;;;;;639637;220;27147;-80
2022/01/17 10:45:04;;;;;;;7.30;2.37;;;6.10;99.90;;;;;;648121;220;26524;-79
2022/01/17 10:47:32;;;;;;;6.87;2.70;;;6.10;99.90;;;;;;637913;224;26523;-79
2022/01/17 10:49:59;;;;;;;9.50;2.93;;;6.10;99.90;;;;;;640106;222;26504;-79
2022/01/17 10:52:26;;;;;;;9.60;3.23;;;6.30;99.90;;;;;;646036;222;26596;-80
2022/01/17 10:54:55;;;;;;;11.00;3.00;;;6.50;99.90;;;;;;640327;222;26777;-80
2022/01/17 10:57:22;;;;;;;6.70;2.53;;;6.40;99.90;;;;;;640017;221;26563;-80
2022/01/17 10:59:51;;;;;;;7.77;2.60;;;6.40;99.90;;;;;;639049;224;26783;-80
2022/01/17 11:02:17;;;;;;;9.43;2.60;;;6.30;99.90;;;;;;648744;221;26566;-79
2022/01/17 11:04:44;;;;;;;7.03;2.30;;;6.20;99.90;;;;;;640984;221;26763;-79
2022/01/17 11:07:12;;;;;;;7.23;2.57;;;6.20;99.90;;;;;;645235;221;26570;-84
2022/01/17 11:09:41;;;;;;;6.93;2.53;;;6.20;99.90;;;;;;639832;224;26566;-85
2022/01/17 11:12:09;;;;;;;7.17;2.67;;;6.30;99.90;;;;;;646579;222;26560;-84
2022/01/17 11:14:36;;;;;;;7.53;2.13;;;6.20;99.90;;;;;;637646;224;26541;-84
2022/01/17 11:17:09;;;;;;;2.90;2.10;;;6.30;99.90;;;;;;639058;223;26849;-84
2022/01/17 11:22:09;;;;;;;5.07;2.10;;;5.10;99.90;;;;;;637962;224;26602;-83
2022/01/17 11:24:36;;;;;;;5.33;2.30;;;4.90;99.90;;;;;;640137;224;26523;-83
2022/01/17 11:27:04;;;;;;;9.60;2.40;;;5.00;99.90;;;;;;637506;225;26781;-91
2022/01/17 11:29:32;;;;;;;5.13;2.53;;;4.50;99.90;;;;;;643126;222;26583;-89
2022/01/17 11:31:59;;;;;;;5.07;2.87;;;4.50;99.90;;;;;;640143;222;27002;-83
2022/01/17 11:34:26;;;;;;;8.70;2.47;;;4.40;99.90;;;;;;640639;224;26522;-83
2022/01/17 11:36:53;;;;;;;8.43;2.70;;;4.30;99.90;;;;;;641166;222;26767;-82
2022/01/17 11:39:22;;;;;;;9.17;2.70;;;4.30;99.90;;;;;;642685;217;26523;-83
2022/01/17 11:41:49;;;;;;;7.63;2.60;;;4.40;99.90;;;;;;643849;221;26634;-82
2022/01/17 11:44:16;;;;;;;7.33;2.63;;;4.40;99.90;;;;;;642618;217;26607;-81
2022/01/17 11:46:48;;;;;;;10.07;3.00;;;4.20;99.90;;;;;;649741;221;26552;-84
2022/01/17 11:49:14;;;;;;;8.50;3.10;;;3.90;99.90;;;;;;644005;221;26802;-82
2022/01/17 11:51:45;;;;;;;5.97;2.70;;;3.90;99.90;;;;;;647219;221;26590;-83
2022/01/17 11:54:09;;;;;;;9.50;2.77;;;4.30;99.90;;;;;;650144;221;26564;-87
2022/01/17 11:56:38;;;;;;;9.37;2.97;;;4.30;99.90;;;;;;639971;218;26795;-86
2022/01/17 11:59:15;;;;;;;10.93;2.90;;;4.40;99.90;;;;;;642849;221;26580;-85
2022/01/17 12:01:42;;;;;;;11.87;3.07;;;4.20;99.90;;;;;;648300;221;26840;-86
2022/01/17 12:04:10;;;;;;;9.87;2.70;;;4.30;99.90;;;;;;642550;222;26785;-87
2022/01/17 12:06:38;;;;;;;7.30;2.83;;;4.20;99.90;;;;;;641380;224;26622;-88
2022/01/17 12:09:17;;;;;;;9.10;2.77;;;4.20;99.90;;;;;;640062;218;26668;-86
2022/01/17 12:11:44;;;;;;;9.73;3.30;;;4.40;99.90;;;;;;640093;224;26604;-86
2022/01/17 12:14:21;;;;;;;10.13;2.90;;;4.30;99.90;;;;;;639404;223;26583;-86
2022/01/17 12:16:48;;;;;;;10.70;2.83;;;4.30;99.90;;;;;;638080;224;26632;-86
2022/01/17 12:19:15;;;;;;;7.53;3.20;;;4.50;99.90;;;;;;643183;221;26923;-84
2022/01/17 12:21:53;;;;;;;9.47;3.10;;;4.70;99.90;;;;;;642232;221;26557;-84
2022/01/17 12:24:30;;;;;;;6.90;2.57;;;4.70;99.90;;;;;;639690;224;26833;-84
2022/01/17 12:27:06;;;;;;;6.10;2.77;;;4.70;99.90;;;;;;637504;225;26592;-84
2022/01/17 12:29:38;;;;;;;7.00;2.83;;;4.70;99.90;;;;;;637458;224;26580;-84
2022/01/17 12:32:06;;;;;;;8.13;2.53;;;4.70;99.90;;;;;;640083;222;26595;-84
2022/01/17 12:34:41;;;;;;;7.20;3.03;;;4.50;99.90;;;;;;646420;222;27035;-84
2022/01/17 12:37:20;;;;;;;5.10;2.50;;;4.50;99.90;;;;;;639618;224;26807;-84
2022/01/17 12:39:47;;;;;;;3.93;2.30;;;4.70;99.90;;;;;;644106;222;26554;-84
2022/01/17 12:42:15;;;;;;;9.33;2.57;;;4.60;99.90;;;;;;642047;222;26531;-84
2022/01/17 12:44:45;;;;;;;18.63;2.93;;;4.70;99.90;;;;;;643087;222;26550;-84
2022/01/17 12:47:09;;;;;;;26.00;4.80;;;4.90;99.90;;;;;;639578;223;26552;-83
2022/01/17 12:49:36;;;;;;;17.53;3.43;;;5.10;99.90;;;;;;637610;222;26594;-82
2022/01/17 12:52:03;;;;;;;25.40;3.50;;;5.20;99.90;;;;;;644398;222;26567;-82
2022/01/17 12:54:31;;;;;;;5.40;2.40;;;5.30;99.90;;;;;;650757;219;26519;-84
2022/01/17 12:56:59;;;;;;;5.60;2.43;;;5.30;99.90;;;;;;645759;221;27352;-85
2022/01/17 12:59:26;;;;;;;21.43;2.83;;;5.50;99.90;;;;;;638457;223;26473;-85
2022/01/17 13:01:57;;;;;;;6.10;2.70;;;5.40;99.90;;;;;;640850;224;26592;-84
2022/01/17 13:04:22;;;;;;;14.20;3.57;;;5.40;99.90;;;;;;646850;222;26550;-87
2022/01/17 13:06:52;;;;;;;15.53;3.43;;;5.30;99.90;;;;;;639073;224;26540;-86
2022/01/17 13:09:20;;;;;;;22.33;3.53;;;5.30;99.90;;;;;;641520;224;26816;-85
2022/01/17 13:11:45;;;;;;;19.07;3.00;;;5.30;99.90;;;;;;645684;221;26591;-85
2022/01/17 13:14:15;;;;;;;10.97;3.33;;;5.10;99.90;;;;;;639542;222;26592;-85
2022/01/17 13:16:42;;;;;;;7.70;3.13;;;4.80;99.90;;;;;;645799;222;26581;-83
2022/01/17 13:19:09;;;;;;;18.13;3.30;;;4.70;99.90;;;;;;639174;224;26830;-83
2022/01/17 13:21:39;;;;;;;10.07;2.90;;;4.50;99.90;;;;;;645031;222;26800;-83
2022/01/17 13:26:38;;;;;;;8.40;2.80;;;4.20;99.90;;;;;;649100;220;26857;-85
2022/01/17 13:29:06;;;;;;;4.30;2.40;;;4.10;99.90;;;;;;641371;222;26608;-85
2022/01/17 13:31:32;;;;;;;7.53;2.63;;;4.20;99.90;;;;;;649013;221;26801;-85
2022/01/17 13:34:11;;;;;;;2.93;2.00;;;4.30;99.90;;;;;;643341;221;26594;-86
2022/01/17 13:36:39;;;;;;;5.73;2.30;;;4.20;99.90;;;;;;648582;221;26516;-85
2022/01/17 13:39:22;;;;;;;9.67;3.13;;;4.20;99.90;;;;;;638763;224;26580;-83
2022/01/17 13:41:50;;;;;;;7.73;2.70;;;4.20;99.90;;;;;;637180;221;26843;-88
2022/01/17 13:44:20;;;;;;;8.30;2.50;;;4.30;99.90;;;;;;638846;219;26581;-89